Time;durP1;ratioP1;P1;durP2;ratioP2;P2;SDS_P1;SDS_P2;PMS_P1;PMS_P2;Temp;Humidity;BMP_temperature;BMP_pressure;BME280_temperature;BME280_humidity;BME280_pressure;Samples;Min_cycle;Max_cycle;Signal;HPM_P1;HPM_P2
2022/10/23 00:00:38;;;;;;;17.63;13.00;;;;;;;41.93;33.52;101227.75;6188511;23;20148;-75
2022/10/23 00:03:04;;;;;;;30.50;21.60;;;;;;;41.77;33.75;101231.03;6214686;23;20427;-73
2022/10/23 00:05:30;;;;;;;36.50;20.23;;;;;;;41.92;33.73;101226.97;6188642;23;20402;-73
2022/10/23 00:07:59;;;;;;;46.00;30.63;;;;;;;41.83;33.76;101231.66;6163937;23;20388;-73
2022/10/23 00:10:27;;;;;;;38.33;26.90;;;;;;;41.60;34.17;101223.66;6188256;23;20395;-73
2022/10/23 00:12:53;;;;;;;27.80;20.77;;;;;;;41.07;34.82;101222.09;6188466;23;20733;-72
2022/10/23 00:15:22;;;;;;;27.63;17.00;;;;;;;40.73;35.03;101217.38;6188468;23;20895;-73
2022/10/23 00:17:48;;;;;;;27.83;14.93;;;;;;;39.18;37.84;101218.09;6188417;23;20418;-72
2022/10/23 00:20:15;;;;;;;23.73;14.50;;;;;;;39.38;37.35;101229.56;6188722;23;20384;-72
2022/10/23 00:22:41;;;;;;;20.43;12.53;;;;;;;39.47;37.05;101239.41;6188462;23;20466;-71
2022/10/23 00:25:09;;;;;;;19.37;10.87;;;;;;;40.45;35.38;101229.56;6188470;23;20407;-72
2022/10/23 00:27:35;;;;;;;16.43;11.10;;;;;;;40.02;36.12;101231.00;6215573;23;20700;-73
2022/10/23 00:30:04;;;;;;;14.17;8.60;;;;;;;39.14;36.81;101229.81;6188388;23;20395;-72
2022/10/23 00:32:30;;;;;;;19.27;11.10;;;;;;;39.93;35.65;101226.63;6188318;23;20409;-72
2022/10/23 00:34:56;;;;;;;17.60;8.80;;;;;;;40.19;34.77;101243.06;6188820;23;20419;-72
2022/10/23 00:37:22;;;;;;;18.53;8.60;;;;;;;39.48;35.62;101232.84;6215429;23;20363;-72
2022/10/23 00:39:47;;;;;;;22.43;8.77;;;;;;;39.17;36.21;101229.25;6188267;23;20230;-72
2022/10/23 00:42:16;;;;;;;18.10;10.70;;;;;;;38.60;37.76;101215.22;6188541;23;20158;-72
2022/10/23 00:44:42;;;;;;;18.73;9.33;;;;;;;39.41;36.61;101226.22;6188389;23;20140;-72
2022/10/23 00:47:08;;;;;;;16.30;10.50;;;;;;;39.29;36.70;101213.22;6188144;23;20378;-72
2022/10/23 00:49:34;;;;;;;25.23;12.47;;;;;;;40.31;35.20;101204.44;6163776;23;20535;-73
2022/10/23 00:52:04;;;;;;;19.70;10.17;;;;;;;40.45;34.90;101191.50;6188889;23;20348;-73
2022/10/23 00:54:35;;;;;;;23.00;9.87;;;;;;;40.81;34.12;101183.94;6188274;23;20977;-73
2022/10/23 00:57:03;;;;;;;19.03;11.00;;;;;;;40.86;34.36;101184.91;6214769;23;20709;-73
2022/10/23 00:59:30;;;;;;;17.30;9.73;;;;;;;41.33;33.14;101169.56;6188135;23;20384;-73
2022/10/23 01:01:56;;;;;;;21.63;11.30;;;;;;;41.52;33.15;101169.22;6163427;23;20399;-73
2022/10/23 01:04:24;;;;;;;19.03;10.90;;;;;;;41.23;33.31;101170.66;6215280;23;20356;-73
2022/10/23 01:07:25;;;;;;;17.90;11.17;;;;;;;41.03;33.75;101168.63;6163555;23;20725;-72
2022/10/23 01:10:09;;;;;;;30.57;12.40;;;;;;;40.84;33.86;101160.75;6182507;23;20738;-73
2022/10/23 01:12:50;;;;;;;21.27;13.07;;;;;;;41.08;33.31;101149.41;6188051;23;20407;-72
2022/10/23 01:15:16;;;;;;;23.00;12.33;;;;;;;41.32;32.80;101136.13;6163349;23;20423;-73
2022/10/23 01:17:50;;;;;;;17.80;10.83;;;;;;;41.45;32.99;101122.63;6214961;23;20460;-73
2022/10/23 01:20:31;;;;;;;19.70;10.83;;;;;;;41.59;32.66;101115.06;6188154;23;20152;-73
2022/10/23 01:23:06;;;;;;;25.87;11.00;;;;;;;41.63;32.80;101117.94;6189687;23;20449;-72
2022/10/23 01:25:37;;;;;;;22.50;11.43;;;;;;;41.72;32.71;101126.84;6190255;23;20875;-73
2022/10/23 01:28:08;;;;;;;20.90;10.63;;;;;;;41.40;32.81;101126.31;6189982;23;20387;-73
2022/10/23 01:30:37;;;;;;;17.17;10.90;;;;;;;41.67;32.86;101137.94;6189913;23;20938;-73
2022/10/23 01:33:20;;;;;;;19.63;12.20;;;;;;;41.84;32.44;101144.13;6189954;23;20387;-73
2022/10/23 01:35:58;;;;;;;19.63;14.17;;;;;;;41.99;32.28;101134.63;6189937;23;20454;-73
2022/10/23 01:38:45;;;;;;;23.33;11.87;;;;;;;42.06;32.08;101129.47;6189724;23;20390;-74
2022/10/23 01:41:21;;;;;;;19.13;11.90;;;;;;;42.05;32.09;101121.59;6166617;23;20426;-73
2022/10/23 01:43:54;;;;;;;19.47;11.73;;;;;;;42.07;32.01;101108.47;6217012;23;20363;-73
2022/10/23 01:46:22;;;;;;;24.23;13.23;;;;;;;42.13;32.14;101109.88;6189571;23;20537;-73
2022/10/23 01:48:54;;;;;;;18.97;13.20;;;;;;;42.12;32.17;101111.00;6216935;23;20358;-73
2022/10/23 01:51:25;;;;;;;21.83;11.07;;;;;;;42.13;32.13;101110.66;6191346;23;20367;-73
2022/10/23 01:53:57;;;;;;;19.13;10.43;;;;;;;42.06;31.91;101107.66;6189730;23;20407;-73
2022/10/23 01:56:27;;;;;;;21.10;13.93;;;;;;;42.13;31.86;101107.13;6189513;23;20492;-73
2022/10/23 01:58:56;;;;;;;19.80;12.30;;;;;;;42.12;32.17;101111.00;6189688;23;20390;-73
2022/10/23 02:01:26;;;;;;;20.73;11.60;;;;;;;42.03;32.05;101102.06;6189621;23;20414;-73
2022/10/23 02:03:53;;;;;;;15.40;12.00;;;;;;;42.01;32.38;101096.16;6189749;23;20479;-73
2022/10/23 02:06:19;;;;;;;27.03;12.97;;;;;;;41.90;32.24;101092.19;6164850;23;20403;-73
2022/10/23 02:08:45;;;;;;;22.40;12.10;;;;;;;41.93;32.35;101086.06;6216192;23;20851;-73
2022/10/23 02:11:17;;;;;;;27.23;13.30;;;;;;;41.98;31.99;101085.88;6164907;23;20484;-73
2022/10/23 02:13:47;;;;;;;20.27;14.10;;;;;;;41.85;32.14;101079.56;6216554;23;20360;-73
2022/10/23 02:16:45;;;;;;;30.57;13.00;;;;;;;41.83;32.53;101070.91;6189610;23;20434;-73
2022/10/23 02:19:33;;;;;;;19.83;13.00;;;;;;;41.93;32.00;101058.81;6189589;23;20481;-73
2022/10/23 02:22:09;;;;;;;24.03;15.17;;;;;;;41.93;32.50;101061.56;6189413;23;20410;-73
2022/10/23 02:24:42;;;;;;;35.00;14.40;;;;;;;41.95;32.23;101056.59;6189606;23;20386;-72
2022/10/23 02:27:22;;;;;;;17.03;12.77;;;;;;;42.01;32.34;101047.88;6190777;23;20879;-73
2022/10/23 02:29:54;;;;;;;23.87;14.73;;;;;;;41.88;32.26;101037.25;6189831;23;20852;-73
2022/10/23 02:32:22;;;;;;;31.13;14.40;;;;;;;41.79;32.52;101029.91;6190174;23;20443;-73
2022/10/23 02:34:48;;;;;;;37.63;15.57;;;;;;;41.03;33.68;101027.13;6189403;23;20438;-73
2022/10/23 02:37:14;;;;;;;22.67;14.93;;;;;;;40.98;34.12;101024.56;6189420;23;20851;-73
2022/10/23 02:39:40;;;;;;;37.47;14.33;;;;;;;41.00;34.04;101023.09;6189368;23;20844;-72
2022/10/23 02:42:20;;;;;;;24.37;14.50;;;;;;;41.13;33.68;101026.78;6216313;23;20429;-72
2022/10/23 02:45:16;;;;;;;24.03;14.37;;;;;;;41.12;33.51;101036.03;6189327;23;20375;-73
2022/10/23 02:48:04;;;;;;;21.80;13.67;;;;;;;40.79;34.53;101036.56;6189259;23;20387;-73
2022/10/23 02:51:10;;;;;;;18.80;13.00;;;;;;;40.80;33.98;101027.28;6216237;23;20378;-73
2022/10/23 02:54:00;;;;;;;17.83;12.10;;;;;;;40.77;34.24;101017.06;6189665;23;20363;-73
2022/10/23 02:56:57;;;;;;;23.70;15.67;;;;;;;40.02;35.42;101020.97;6165625;23;20449;-74
2022/10/23 03:00:28;;;;;;;20.73;14.97;;;;;;;40.72;34.70;101022.66;6216326;23;20759;-75
2022/10/23 03:03:01;;;;;;;22.43;14.40;;;;;;;40.80;34.33;101037.38;6094894;23;20394;-75
2022/10/23 03:05:32;;;;;;;28.13;14.80;;;;;;;40.72;34.75;101032.75;6070611;23;20866;-73
2022/10/23 03:07:58;;;;;;;21.70;15.47;;;;;;;40.37;35.37;101030.00;6136077;23;20390;-73
2022/10/23 03:10:24;;;;;;;23.07;15.83;;;;;;;40.34;35.68;101035.28;6189145;23;20470;-73
2022/10/23 03:12:50;;;;;;;22.67;13.20;;;;;;;40.29;35.50;101036.22;6189319;23;20410;-73
2022/10/23 03:15:16;;;;;;;17.33;13.50;;;;;;;40.17;35.88;101038.78;6216059;23;20469;-73
2022/10/23 03:17:42;;;;;;;24.97;15.00;;;;;;;40.58;35.22;101037.53;6189036;23;20755;-73
2022/10/23 03:20:09;;;;;;;18.97;11.07;;;;;;;40.55;34.67;101041.69;6189143;23;20534;-73
2022/10/23 03:22:35;;;;;;;22.23;12.37;;;;;;;40.68;34.59;101031.78;6188935;23;20386;-72
2022/10/23 03:25:01;;;;;;;23.47;10.83;;;;;;;40.37;35.00;101032.72;6188861;23;20379;-72
2022/10/23 03:27:27;;;;;;;22.43;11.37;;;;;;;40.49;34.89;101029.38;6189862;23;20433;-73
2022/10/23 03:29:53;;;;;;;14.30;9.90;;;;;;;40.66;34.78;101023.16;6188753;23;20403;-73
2022/10/23 03:32:18;;;;;;;22.50;11.03;;;;;;;40.59;35.00;101009.25;6188824;23;20214;-73
2022/10/23 03:34:44;;;;;;;24.50;11.50;;;;;;;40.75;34.17;101002.16;6189069;23;20180;-73
2022/10/23 03:37:10;;;;;;;19.43;9.93;;;;;;;40.70;34.71;100997.72;6188759;23;20259;-73
2022/10/23 03:39:36;;;;;;;17.30;11.30;;;;;;;40.46;35.08;100995.47;6215784;23;20390;-73
2022/10/23 03:42:02;;;;;;;23.97;11.97;;;;;;;40.38;34.93;100998.16;6164377;23;20210;-73
2022/10/23 03:44:30;;;;;;;24.90;12.20;;;;;;;40.34;35.30;100998.03;6188387;23;20383;-74
2022/10/23 03:46:56;;;;;;;17.43;9.40;;;;;;;40.58;34.49;101007.63;6215868;23;20739;-75
2022/10/23 03:49:22;;;;;;;14.63;9.80;;;;;;;40.62;34.62;101006.66;6163904;23;20387;-74
2022/10/23 03:51:51;;;;;;;17.20;11.87;;;;;;;40.82;34.34;101005.19;6188991;23;20387;-73
2022/10/23 03:54:25;;;;;;;17.43;10.50;;;;;;;40.78;34.12;101004.25;6188623;23;20180;-73
2022/10/23 03:56:52;;;;;;;21.30;11.10;;;;;;;41.01;34.14;101004.88;6215669;23;20747;-73
2022/10/23 03:59:18;;;;;;;25.53;10.10;;;;;;;41.10;33.77;101007.56;6215709;23;20690;-73
2022/10/23 04:01:45;;;;;;;15.23;10.10;;;;;;;41.18;33.71;100996.63;6188509;23;20884;-72
2022/10/23 04:04:12;;;;;;;13.90;7.93;;;;;;;41.22;33.86;100997.59;6164072;23;20415;-73
2022/10/23 04:06:38;;;;;;;13.13;9.10;;;;;;;41.18;33.76;100996.63;6215499;23;20374;-72
2022/10/23 04:09:04;;;;;;;16.50;9.30;;;;;;;41.08;33.62;100997.81;6188513;23;20979;-75
2022/10/23 04:11:31;;;;;;;18.03;9.87;;;;;;;41.16;33.77;101009.00;6188461;23;20390;-75
2022/10/23 04:13:57;;;;;;;16.57;10.80;;;;;;;41.01;33.91;101002.16;6188342;23;20872;-75
2022/10/23 04:16:23;;;;;;;22.40;10.93;;;;;;;40.52;35.06;101007.81;6188382;23;20517;-73
2022/10/23 04:18:50;;;;;;;20.63;10.90;;;;;;;40.66;34.62;101004.13;6188381;23;20152;-73
2022/10/23 04:21:16;;;;;;;23.50;11.40;;;;;;;40.62;34.50;101001.22;6215256;23;20403;-74
2022/10/23 04:23:42;;;;;;;22.73;11.03;;;;;;;40.64;34.85;101007.16;6188361;23;20383;-73
2022/10/23 04:26:08;;;;;;;16.00;9.50;;;;;;;40.65;34.33;101016.13;6188088;23;20407;-73
2022/10/23 04:28:34;;;;;;;18.50;10.03;;;;;;;40.74;34.31;101016.88;6188358;23;20390;-73
2022/10/23 04:31:00;;;;;;;17.30;10.83;;;;;;;40.43;34.74;101017.03;6188172;23;20450;-73
2022/10/23 04:33:26;;;;;;;24.17;12.83;;;;;;;40.36;35.13;101014.00;6188295;23;20473;-73
2022/10/23 04:35:52;;;;;;;16.27;10.27;;;;;;;40.23;35.26;101016.56;6188287;23;20183;-73
2022/10/23 04:38:18;;;;;;;21.63;8.87;;;;;;;40.36;35.30;101005.84;6187960;23;20379;-74
2022/10/23 04:40:44;;;;;;;15.13;9.40;;;;;;;40.47;35.12;101013.41;6188389;23;20495;-73
2022/10/23 04:43:10;;;;;;;14.07;11.20;;;;;;;40.30;35.65;101013.38;6188262;23;20395;-73
2022/10/23 04:45:36;;;;;;;21.10;9.50;;;;;;;40.45;35.55;101020.22;6188192;23;20376;-73
2022/10/23 04:48:02;;;;;;;17.90;10.40;;;;;;;40.52;35.07;101026.03;6188535;23;20394;-73
2022/10/23 04:50:28;;;;;;;18.43;10.00;;;;;;;40.54;34.86;101032.75;6215129;23;20167;-73
2022/10/23 04:52:55;;;;;;;20.00;10.30;;;;;;;40.55;35.14;101037.06;6215288;23;20360;-73
2022/10/23 04:55:21;;;;;;;22.40;9.57;;;;;;;39.99;36.09;101037.91;6214726;23;20174;-73
2022/10/23 04:57:47;;;;;;;19.10;8.97;;;;;;;40.45;35.38;101044.69;6188167;23;20399;-73
2022/10/23 05:00:15;;;;;;;19.30;9.40;;;;;;;39.99;35.93;101049.56;6188366;23;20363;-73
2022/10/23 05:02:41;;;;;;;15.43;8.57;;;;;;;40.44;35.67;101057.50;6188081;23;20378;-72
2022/10/23 05:05:07;;;;;;;25.00;9.17;;;;;;;40.53;35.44;101061.06;6188267;23;20367;-73
2022/10/23 05:07:34;;;;;;;21.30;10.13;;;;;;;40.56;35.26;101065.06;6188218;23;20367;-73
2022/10/23 05:10:00;;;;;;;19.63;9.90;;;;;;;40.69;34.95;101066.81;6188095;23;20410;-73
2022/10/23 05:12:26;;;;;;;17.20;9.97;;;;;;;40.69;34.85;101058.66;6188185;23;20379;-72
2022/10/23 05:14:53;;;;;;;22.53;10.20;;;;;;;40.63;35.01;101064.56;6214988;23;20444;-73
2022/10/23 05:17:32;;;;;;;21.43;12.10;;;;;;;40.19;36.21;101061.00;6188186;23;20374;-72
2022/10/23 05:20:02;;;;;;;19.40;12.17;;;;;;;40.33;35.81;101066.28;6163265;23;20375;-74
2022/10/23 05:22:34;;;;;;;30.07;11.60;;;;;;;40.61;35.46;101064.09;6188070;23;20434;-75
2022/10/23 05:25:01;;;;;;;22.23;12.43;;;;;;;40.74;35.32;101074.00;6187983;23;20387;-75
2022/10/23 05:27:27;;;;;;;31.93;11.70;;;;;;;40.51;35.57;101081.50;6188119;23;20395;-75
2022/10/23 05:29:53;;;;;;;17.90;10.13;;;;;;;40.37;35.47;101078.91;6214761;23;20450;-74
2022/10/23 05:32:20;;;;;;;21.53;14.00;;;;;;;40.34;35.70;101086.94;6187978;23;20375;-75
2022/10/23 05:34:46;;;;;;;26.60;12.60;;;;;;;40.55;35.26;101094.16;6188025;23;20477;-75
2022/10/23 05:37:14;;;;;;;17.23;10.70;;;;;;;40.37;35.12;101100.66;6187969;23;20390;-74
2022/10/23 05:39:40;;;;;;;16.30;10.57;;;;;;;40.59;35.10;101102.50;6215044;23;20351;-75
2022/10/23 05:42:06;;;;;;;19.93;11.90;;;;;;;40.45;35.49;101109.94;6188065;23;20379;-75
2022/10/23 05:44:32;;;;;;;21.40;11.33;;;;;;;40.33;35.42;101102.44;6187851;23;20391;-75
2022/10/23 05:46:58;;;;;;;24.63;13.97;;;;;;;40.22;35.67;101101.94;6187941;23;20390;-75
2022/10/23 05:49:24;;;;;;;18.53;11.90;;;;;;;40.65;35.06;101103.13;6188146;23;20152;-75
2022/10/23 05:51:51;;;;;;;23.73;12.47;;;;;;;40.55;35.06;101099.59;6187934;23;20175;-75
2022/10/23 05:54:16;;;;;;;29.33;12.57;;;;;;;40.75;35.05;101102.81;6187978;23;20403;-74
2022/10/23 05:56:42;;;;;;;25.07;13.13;;;;;;;40.83;34.94;101103.94;6188074;23;20426;-74
2022/10/23 05:59:09;;;;;;;20.47;12.30;;;;;;;40.72;35.29;101115.13;6188082;23;20603;-73
2022/10/23 06:01:36;;;;;;;21.53;11.87;;;;;;;40.70;35.11;101116.56;6187929;23;20434;-71
2022/10/23 06:04:03;;;;;;;23.50;12.80;;;;;;;40.17;36.07;101123.00;6187993;23;20866;-72
2022/10/23 06:06:29;;;;;;;27.47;13.43;;;;;;;40.55;35.82;101118.63;6187949;23;20808;-73
2022/10/23 06:08:55;;;;;;;25.67;13.40;;;;;;;40.81;35.06;101124.09;6188416;23;20403;-73
2022/10/23 06:11:22;;;;;;;25.80;12.83;;;;;;;40.92;35.49;101123.78;6189703;23;20391;-73
2022/10/23 06:13:47;;;;;;;27.63;13.73;;;;;;;40.81;35.82;101132.25;6189554;23;20433;-72
2022/10/23 06:16:24;;;;;;;28.70;14.50;;;;;;;40.80;35.28;101138.81;6216365;23;20434;-72
2022/10/23 06:18:50;;;;;;;27.30;13.50;;;;;;;40.91;35.77;101147.50;6189548;23;20398;-72
2022/10/23 06:21:16;;;;;;;26.97;14.03;;;;;;;40.84;35.63;101149.88;6189559;23;20735;-73
2022/10/23 06:23:43;;;;;;;20.60;13.20;;;;;;;40.79;35.70;101156.25;6189502;23;20476;-74
2022/10/23 06:26:11;;;;;;;24.50;13.70;;;;;;;40.79;36.02;101163.63;6189478;23;20375;-74
2022/10/23 06:29:14;;;;;;;27.73;16.57;;;;;;;40.38;36.73;101172.94;6216586;23;20430;-73
2022/10/23 06:31:39;;;;;;;31.03;18.17;;;;;;;40.37;36.74;101179.50;6189042;23;20508;-73
2022/10/23 06:34:08;;;;;;;34.03;17.10;;;;;;;40.08;37.24;101187.38;6165194;23;20672;-72
2022/10/23 06:36:34;;;;;;;24.10;14.90;;;;;;;40.78;36.19;101190.00;6189283;23;20463;-72
2022/10/23 06:39:00;;;;;;;29.07;13.80;;;;;;;40.75;36.04;101195.28;6164562;23;20455;-74
2022/10/23 06:41:26;;;;;;;24.30;13.57;;;;;;;40.98;36.17;101198.69;6215824;23;20367;-72
2022/10/23 06:43:52;;;;;;;29.27;15.77;;;;;;;41.11;35.70;101200.47;6188200;23;20577;-72
2022/10/23 06:46:18;;;;;;;20.37;13.90;;;;;;;41.16;35.92;101203.03;6163356;23;20194;-72
2022/10/23 06:48:44;;;;;;;31.23;16.27;;;;;;;41.18;35.52;101208.94;6188492;23;20399;-72
2022/10/23 06:51:14;;;;;;;25.60;12.60;;;;;;;41.29;35.87;101215.66;6163197;23;20731;-73
2022/10/23 06:53:40;;;;;;;33.13;16.63;;;;;;;40.96;36.33;101209.13;6214817;23;20159;-72
2022/10/23 06:56:08;;;;;;;21.07;13.30;;;;;;;40.99;36.43;101211.19;6187809;23;20493;-74
2022/10/23 06:58:35;;;;;;;29.10;15.67;;;;;;;40.90;36.38;101215.78;6162914;23;20384;-73
2022/10/23 07:01:03;;;;;;;20.47;13.60;;;;;;;41.19;36.28;101221.44;6188643;23;20739;-72
2022/10/23 07:03:29;;;;;;;21.63;14.53;;;;;;;41.54;35.89;101222.22;6163907;23;20850;-71
2022/10/23 07:05:58;;;;;;;29.67;14.37;;;;;;;41.52;35.82;101227.22;6188695;23;20717;-72
2022/10/23 07:08:24;;;;;;;27.80;16.30;;;;;;;41.48;35.78;101236.34;6215595;23;20357;-72
2022/10/23 07:10:50;;;;;;;31.13;17.77;;;;;;;41.23;36.36;101232.47;6187733;23;20415;-69
2022/10/23 07:13:16;;;;;;;20.33;13.57;;;;;;;41.10;36.58;101242.41;6188727;23;20654;-76
2022/10/23 07:15:43;;;;;;;42.63;14.40;;;;;;;41.32;35.75;101245.00;6188693;23;20180;-76
2022/10/23 07:18:14;;;;;;;25.87;13.97;;;;;;;41.26;35.62;101242.75;6188525;23;20387;-75
2022/10/23 07:20:43;;;;;;;27.73;15.23;;;;;;;41.04;36.50;101247.19;6188628;23;20466;-73
2022/10/23 07:23:11;;;;;;;27.70;15.70;;;;;;;41.11;36.36;101245.94;6163854;23;20386;-73
2022/10/23 07:25:37;;;;;;;18.60;11.50;;;;;;;41.25;36.03;101246.56;6188235;23;20383;-75
2022/10/23 07:28:04;;;;;;;32.77;17.90;;;;;;;41.11;36.50;101248.66;6188792;23;20386;-75
2022/10/23 07:30:30;;;;;;;29.67;16.53;;;;;;;41.29;36.30;101256.50;6214874;23;20430;-74
2022/10/23 07:32:56;;;;;;;28.43;15.27;;;;;;;41.53;35.98;101253.31;6188600;23;20387;-72
2022/10/23 07:35:22;;;;;;;23.57;14.30;;;;;;;41.85;35.14;101259.38;6188288;23;20434;-75
2022/10/23 07:37:48;;;;;;;23.40;14.60;;;;;;;41.75;35.57;101257.81;6188401;23;20148;-73
2022/10/23 07:40:14;;;;;;;20.53;13.10;;;;;;;41.78;34.94;101267.25;6188060;23;20162;-72
2022/10/23 07:42:40;;;;;;;19.33;12.97;;;;;;;41.95;35.17;101261.75;6187538;23;20148;-73
2022/10/23 07:45:07;;;;;;;17.33;11.90;;;;;;;41.85;34.71;101271.06;6188336;23;20391;-72
2022/10/23 07:47:35;;;;;;;26.00;15.80;;;;;;;41.79;34.88;101279.75;6188065;23;20380;-72
2022/10/23 07:50:01;;;;;;;25.10;13.87;;;;;;;42.03;35.02;101290.09;6214762;23;20439;-72
2022/10/23 07:52:27;;;;;;;28.00;14.60;;;;;;;41.80;35.33;101290.31;6188178;23;20836;-72
2022/10/23 07:54:53;;;;;;;28.40;12.83;;;;;;;41.85;35.22;101292.06;6214264;23;20499;-72
2022/10/23 07:57:19;;;;;;;27.83;14.43;;;;;;;42.06;34.92;101298.44;6185234;23;20152;-72
2022/10/23 07:59:45;;;;;;;22.13;14.70;;;;;;;41.71;35.06;101292.22;6187786;23;20433;-67
2022/10/23 08:02:15;;;;;;;24.67;15.27;;;;;;;42.03;35.04;101301.81;6188735;23;20407;-68
2022/10/23 08:04:41;;;;;;;26.53;14.73;;;;;;;42.40;34.52;101299.47;6188839;23;20362;-67
2022/10/23 08:07:07;;;;;;;28.03;13.10;;;;;;;41.83;35.00;101306.03;6215307;23;20474;-67
2022/10/23 08:09:34;;;;;;;27.33;13.07;;;;;;;41.90;35.16;101304.72;6215622;23;20696;-67
2022/10/23 08:12:00;;;;;;;24.40;12.77;;;;;;;41.96;34.83;101308.88;6188486;23;20187;-67
2022/10/23 08:14:27;;;;;;;20.77;13.63;;;;;;;42.03;34.97;101303.72;6163653;23;20495;-70
2022/10/23 08:16:53;;;;;;;19.07;12.10;;;;;;;42.42;34.52;101305.41;6213403;23;20798;-70
2022/10/23 08:19:19;;;;;;;21.43;12.00;;;;;;;42.31;34.44;101307.69;6188287;23;20403;-70
2022/10/23 08:21:45;;;;;;;24.83;13.80;;;;;;;42.22;34.47;101306.13;6215028;23;20179;-71
2022/10/23 08:24:14;;;;;;;17.90;11.27;;;;;;;42.18;34.77;101311.44;6188228;23;20600;-71
2022/10/23 08:26:40;;;;;;;22.43;11.50;;;;;;;42.08;34.46;101319.91;6214707;23;20164;-71
2022/10/23 08:29:06;;;;;;;38.73;15.23;;;;;;;41.78;34.92;101319.81;6187747;23;20367;-71
2022/10/23 08:31:32;;;;;;;50.77;32.80;;;;;;;41.74;35.07;101327.03;6186306;23;20242;-71
2022/10/23 08:33:58;;;;;;;46.50;27.50;;;;;;;42.01;34.88;101316.91;6213335;23;20895;-70
2022/10/23 08:36:26;;;;;;;63.70;34.13;;;;;;;42.27;34.68;101316.84;6186557;23;20187;-70
2022/10/23 08:38:54;;;;;;;42.87;21.73;;;;;;;42.26;34.61;101323.44;6213498;23;20174;-70
2022/10/23 08:41:36;;;;;;;50.60;26.10;;;;;;;42.17;34.90;101320.72;6186830;23;20850;-71
2022/10/23 08:44:18;;;;;;;28.77;14.37;;;;;;;42.33;34.49;101324.53;6186239;23;20415;-75
2022/10/23 08:47:12;;;;;;;26.23;15.67;;;;;;;41.76;35.63;101319.34;6187957;23;20390;-76
2022/10/23 08:49:54;;;;;;;23.47;15.93;;;;;;;42.01;35.20;101325.06;6181685;23;20419;-77
2022/10/23 08:52:30;;;;;;;26.10;16.27;;;;;;;42.35;34.87;101335.88;6187939;23;20394;-74
2022/10/23 08:55:06;;;;;;;28.40;15.10;;;;;;;42.39;34.57;101320.50;6187719;23;20901;-75
2022/10/23 08:57:37;;;;;;;24.27;13.80;;;;;;;42.43;34.36;101322.56;6187912;23;20501;-70
2022/10/23 09:00:07;;;;;;;19.97;12.73;;;;;;;42.31;34.28;101326.00;6187522;23;20418;-74
2022/10/23 09:02:40;;;;;;;25.23;13.60;;;;;;;42.31;34.49;101340.41;6188092;23;20398;-76
2022/10/23 09:05:24;;;;;;;30.97;15.00;;;;;;;42.06;35.03;101339.34;6187304;23;20766;-74
2022/10/23 09:07:50;;;;;;;27.40;14.60;;;;;;;42.00;35.03;101337.09;6188093;23;20921;-72
2022/10/23 09:10:50;;;;;;;25.10;12.90;;;;;;;42.03;35.00;101331.00;6215303;23;20488;-73
2022/10/23 09:13:34;;;;;;;30.07;12.83;;;;;;;42.52;34.35;101337.75;6188012;23;20156;-73
2022/10/23 09:16:18;;;;;;;22.90;14.10;;;;;;;42.28;34.73;101340.25;6187790;23;20480;-69
2022/10/23 09:18:47;;;;;;;23.87;13.70;;;;;;;42.43;34.53;101336.22;6188116;23;20855;-70
2022/10/23 09:21:13;;;;;;;20.20;14.27;;;;;;;42.69;34.22;101336.13;6187975;23;20387;-70
2022/10/23 09:23:39;;;;;;;24.00;12.37;;;;;;;42.46;34.32;101338.28;6187861;23;20410;-70
2022/10/23 09:26:15;;;;;;;27.57;13.67;;;;;;;42.25;34.90;101328.09;6187908;23;20462;-70
2022/10/23 09:28:46;;;;;;;29.27;18.27;;;;;;;42.13;35.17;101328.72;6187697;23;20564;-76
2022/10/23 09:31:14;;;;;;;24.13;13.13;;;;;;;42.44;34.80;101324.97;6187917;23;20470;-77
2022/10/23 09:34:13;;;;;;;23.60;14.67;;;;;;;42.67;34.22;101322.03;6215132;23;20384;-82
2022/10/23 09:37:16;;;;;;;23.73;13.53;;;;;;;42.80;33.82;101315.53;6180849;23;20438;-78
2022/10/23 09:39:42;;;;;;;21.27;12.87;;;;;;;42.56;34.53;101307.91;6188114;23;20383;-76
2022/10/23 09:42:22;;;;;;;27.33;14.90;;;;;;;42.91;33.95;101314.81;6188003;23;20395;-77
2022/10/23 09:44:50;;;;;;;25.90;13.83;;;;;;;42.95;33.74;101314.94;6188661;23;20414;-76
2022/10/23 09:47:23;;;;;;;25.90;12.80;;;;;;;42.74;34.29;101308.66;6189686;23;20444;-76
2022/10/23 09:49:54;;;;;;;39.97;14.03;;;;;;;42.89;33.72;101302.63;6189712;23;20394;-76
2022/10/23 09:52:34;;;;;;;22.80;16.27;;;;;;;42.40;34.31;101296.75;6187890;23;20398;-80
2022/10/23 09:55:17;;;;;;;25.00;15.57;;;;;;;42.62;34.34;101291.06;6187412;23;20419;-79
2022/10/23 09:57:44;;;;;;;26.63;13.10;;;;;;;42.54;34.64;101291.88;6166131;23;20855;-77
2022/10/23 10:00:20;;;;;;;28.00;13.30;;;;;;;42.70;34.22;101283.94;6187533;23;20383;-81
2022/10/23 10:03:06;;;;;;;25.73;14.33;;;;;;;42.83;33.90;101282.91;6185355;23;20882;-72
2022/10/23 10:05:35;;;;;;;23.50;14.47;;;;;;;43.09;33.46;101279.22;6187185;23;20767;-76
2022/10/23 10:08:19;;;;;;;26.00;14.30;;;;;;;42.51;34.38;101286.28;6188935;23;20383;-73
2022/10/23 10:11:03;;;;;;;21.03;14.63;;;;;;;42.87;33.87;101272.94;6215805;23;20753;-77
2022/10/23 10:13:32;;;;;;;26.63;14.50;;;;;;;42.53;34.41;101275.81;6189099;23;20410;-77
2022/10/23 10:16:26;;;;;;;27.37;14.40;;;;;;;42.80;34.24;101277.31;6189369;23;20418;-77
2022/10/23 10:19:13;;;;;;;23.13;13.20;;;;;;;42.57;34.73;101274.06;6189352;23;20387;-72
2022/10/23 10:21:46;;;;;;;24.43;12.97;;;;;;;43.16;33.68;101268.59;6216320;23;20375;-73
2022/10/23 10:24:20;;;;;;;26.93;14.60;;;;;;;43.28;33.67;101271.38;6187637;23;20383;-75
2022/10/23 10:27:21;;;;;;;25.53;14.70;;;;;;;42.78;34.07;101272.19;6188969;23;20410;-72
2022/10/23 10:29:53;;;;;;;21.90;13.13;;;;;;;42.73;34.32;101263.41;6189328;23;20722;-83
2022/10/23 10:32:31;;;;;;;25.17;12.93;;;;;;;42.84;34.23;101259.94;6187699;23;20450;-76
2022/10/23 10:35:25;;;;;;;15.93;12.57;;;;;;;42.70;34.18;101270.31;6189205;23;20431;-75
2022/10/23 10:38:03;;;;;;;21.90;13.73;;;;;;;42.98;33.89;101258.91;6189507;23;20728;-70
2022/10/23 10:40:40;;;;;;;23.93;11.90;;;;;;;43.13;33.62;101253.66;6189342;23;20429;-69
2022/10/23 10:43:29;;;;;;;24.20;11.83;;;;;;;43.24;33.55;101259.53;6215392;23;20358;-69
2022/10/23 10:46:06;;;;;;;23.00;12.13;;;;;;;43.39;33.41;101244.47;6200041;23;20386;-74
2022/10/23 10:48:41;;;;;;;23.30;15.03;;;;;;;43.07;33.65;101237.81;6164130;23;20452;-71
2022/10/23 10:51:36;;;;;;;19.40;12.67;;;;;;;43.13;33.34;101239.22;6189275;23;20390;-74
2022/10/23 10:54:14;;;;;;;26.00;13.63;;;;;;;43.42;33.30;101230.97;6188618;23;20419;-73
2022/10/23 10:56:42;;;;;;;17.43;11.47;;;;;;;43.16;33.55;101222.97;6215135;23;20486;-72
2022/10/23 10:59:27;;;;;;;23.70;11.30;;;;;;;43.12;33.71;101227.50;6215831;23;20386;-71
2022/10/23 11:02:12;;;;;;;21.43;12.70;;;;;;;43.01;33.54;101217.31;6166674;23;20498;-74
2022/10/23 11:04:51;;;;;;;24.17;12.77;;;;;;;42.99;33.84;101211.41;6187882;23;20406;-72
2022/10/23 11:07:25;;;;;;;18.43;11.03;;;;;;;43.16;33.82;101225.72;6188212;23;20888;-73
2022/10/23 11:09:52;;;;;;;17.27;10.43;;;;;;;42.93;33.98;101210.78;6188786;23;20382;-67
2022/10/23 11:12:25;;;;;;;18.17;10.87;;;;;;;43.02;33.73;101208.00;6188927;23;20816;-67
2022/10/23 11:14:51;;;;;;;25.63;12.37;;;;;;;43.29;33.64;101196.53;6189080;23;20438;-67
2022/10/23 11:17:28;;;;;;;23.50;10.70;;;;;;;43.28;33.67;101192.19;6187954;23;20359;-66
2022/10/23 11:20:00;;;;;;;17.03;11.90;;;;;;;43.48;33.18;101189.78;6187730;23;20409;-68
2022/10/23 11:22:56;;;;;;;18.47;11.10;;;;;;;43.18;33.64;101177.03;6214147;23;20426;-67
2022/10/23 11:25:49;;;;;;;21.17;11.77;;;;;;;43.22;33.63;101177.16;6188496;23;20410;-69
2022/10/23 11:28:47;;;;;;;17.70;10.53;;;;;;;43.19;33.72;101175.88;6188830;23;20375;-68